x

9099018 - Marquette C.g., Mi (mcgm4) Weather Station

8:54pm - Sun 1st Mar 2015 All times are CST. -6 hours from GMT.

  • Wind
    5mph, 7mph gusts
  • Air Temp 18°f
  • Sea Pressure 1017.7mb
  • 9099018 - Marquette C.g., Mi
  • 9099018 - Marquette C.g., Mi

More Historic Weather Station data

Upgrade to MSW Pro to gain access to the past 30 days of data for over 8000 Wavebouys and Weather Stations around the globe.

Join Pro

Comparision Forecast

View Surf forecast
   
Sun 03/01 8:54pm 5 7 mph 1017.7mb 18f
8:48pm 5 7 mph 1017.6mb 18f
8:42pm 5 6 mph 1017.6mb 18f
8:36pm 5 7 mph 1017.6mb 18f
8:30pm 5 6 mph 1017.6mb 18f
8:24pm 3 6 mph 1017.6mb 18f
8:18pm 5 6 mph 1017.6mb 19f
8:12pm 3 6 mph 1017.6mb 18f
8:06pm 5 6 mph 1017.6mb 18f
7:42pm 5 6 mph 1017.6mb 19f
7:36pm 5 6 mph 1017.6mb 19f
7:30pm 3 6 mph 1017.6mb 19f
7:24pm 5 6 mph 1017.6mb 19f
7:18pm 3 6 mph - -
7:00pm 3 5 mph 1017.7mb 19f
6:54pm 2 5 mph 1017.7mb 20f
6:48pm 3 5 mph 1017.7mb 20f
6:42pm 3 6 mph 1017.6mb 20f
6:36pm 5 6 mph 1017.6mb 20f
6:30pm 3 6 mph 1017.6mb 20f
6:24pm 3 6 mph - -
6:18pm 5 8 mph 1017.5mb 21f
6:12pm 3 6 mph 1017.4mb 21f
6:06pm 5 8 mph 1017.4mb 21f
6:00pm 5 8 mph 1017.3mb 21f
5:48pm 5 8 mph 1017.2mb 21f
5:42pm 5 8 mph 1017.2mb 22f
5:36pm 5 8 mph 1017.2mb 22f
5:30pm 5 9 mph 1017.1mb 22f
5:24pm 7 11 mph 1017.1mb 22f
5:18pm 5 10 mph 1016.9mb 22f
5:12pm 6 10 mph 1016.9mb 23f
5:06pm 6 13 mph 1016.9mb 23f
5:00pm 5 15 mph 1016.8mb 23f
4:54pm 7 15 mph 1016.8mb 23f
4:48pm 5 10 mph 1016.8mb 23f
4:42pm 8 14 mph 1016.9mb 23f
4:36pm 11 16 mph 1016.8mb 23f
4:30pm 9 14 mph 1016.8mb 23f
4:24pm 9 14 mph 1016.8mb 23f
4:18pm 10 17 mph 1016.8mb 23f
4:12pm 10 16 mph 1016.8mb 23f
4:06pm 9 14 mph 1016.8mb 24f
4:00pm 9 16 mph 1016.8mb 24f
3:54pm 10 17 mph 1016.9mb 24f
3:48pm 10 16 mph 1016.8mb 24f
3:42pm 14 20 mph 1016.8mb 24f
3:36pm 10 16 mph 1016.8mb 25f
3:30pm 5 10 mph 1016.7mb 25f
3:24pm 7 14 mph 1016.7mb 25f
3:18pm 7 14 mph 1016.7mb 25f
3:12pm 11 16 mph 1016.6mb 25f
3:06pm 13 18 mph 1016.7mb 25f
3:00pm 11 16 mph 1016.6mb 25f
2:54pm 13 16 mph 1016.6mb 25f
2:48pm 10 16 mph 1016.6mb 25f
2:42pm 9 15 mph 1016.7mb 25f
2:36pm 10 16 mph 1016.7mb 25f
2:30pm 8 17 mph 1016.8mb 25f
2:24pm 11 16 mph 1016.8mb 25f
2:18pm 9 16 mph 1016.9mb 26f
2:12pm 8 17 mph 1016.9mb 25f
2:06pm 9 14 mph 1016.9mb 25f
2:00pm 7 14 mph 1017mb 25f
1:54pm 10 17 mph 1017mb 25f
1:48pm 7 14 mph 1017mb 25f
1:36pm 9 16 mph 1017.2mb 24f
1:30pm 6 13 mph 1017.3mb 25f
1:24pm 8 13 mph 1017.3mb 24f
1:18pm 7 10 mph 1017.4mb 24f
1:12pm 8 13 mph 1017.5mb 24f
1:06pm 10 14 mph 1017.6mb 24f
1:00pm 7 16 mph 1017.6mb 24f
12:54pm 9 17 mph 1017.8mb -
12:48pm 6 11 mph 1017.9mb 24f
12:42pm 7 11 mph 1018mb 24f
12:36pm 5 10 mph 1018.1mb 23f
12:30pm 9 15 mph 1018.3mb 23f
12:24pm 8 13 mph 1018.4mb 23f
12:18pm 7 14 mph 1018.5mb 22f
12:12pm 8 18 mph - -
12:06pm 10 15 mph 1018.7mb 22f
12:00pm 8 14 mph 1018.8mb 22f
11:54am 6 13 mph 1018.9mb 22f
11:48am 7 13 mph 1019mb 22f
11:42am 8 15 mph 1019.2mb 22f
11:36am 7 9 mph 1019.3mb 22f
11:30am 3 13 mph 1019.3mb -
11:24am 8 13 mph 1019.4mb 21f
11:18am 7 14 mph 1019.4mb 21f
11:12am 7 10 mph 1019.5mb 21f
11:06am 3 6 mph 1019.6mb 22f
11:00am 2 9 mph 1019.6mb 21f
10:54am 5 8 mph 1019.5mb 21f
10:48am 6 10 mph 1019.6mb 20f
10:42am 9 14 mph 1019.6mb 20f
10:36am 6 10 mph 1019.6mb 20f
10:30am 6 10 mph 1019.8mb 19f
10:24am 8 15 mph 1019.7mb 19f
10:18am 10 14 mph 1019.8mb 18f
10:12am 10 13 mph 1019.8mb 18f
10:06am 7 10 mph 1019.9mb 18f
10:00am 7 16 mph 1020mb 18f
9:54am 11 17 mph 1020mb 17f
9:48am 11 17 mph - -
9:42am 14 18 mph 1020.1mb 17f
9:36am 7 20 mph 1020.1mb 17f
9:30am 10 22 mph 1020.1mb 16f
9:24am 13 20 mph 1020.2mb 16f
9:18am 13 21 mph 1020.3mb 16f
9:12am 8 15 mph 1020.4mb 16f
9:06am 11 17 mph 1020.4mb 16f
9:00am 9 15 mph 1020.5mb 16f
8:54am 8 13 mph 1020.6mb 15f
8:48am 11 16 mph 1020.7mb 15f
8:42am 10 18 mph 1020.8mb 15f
8:18am 9 17 mph 1021mb 14f
8:12am 8 16 mph 1021mb 14f
8:06am 11 17 mph 1021.1mb 13f
8:00am 10 17 mph 1021.1mb 13f
7:54am 7 16 mph 1021mb 13f
7:48am 9 15 mph 1021mb 13f
7:42am 7 13 mph 1021.2mb 12f
7:36am 10 16 mph 1021.3mb 12f
7:30am 9 15 mph 1021.4mb 11f
7:24am 8 14 mph 1021.4mb 11f
7:18am 9 20 mph 1021.3mb 11f
7:00am 11 17 mph 1021.3mb 11f
6:48am 14 18 mph 1021.5mb 11f
6:42am 13 18 mph 1021.7mb 11f
6:36am 14 17 mph 1021.8mb 11f
6:30am 8 15 mph 1022mb 11f
6:24am 9 14 mph 1022.2mb 11f
6:18am 9 14 mph 1022.3mb 11f
6:12am 8 18 mph 1022.4mb 11f
6:06am 6 13 mph 1022.6mb 11f
6:00am 7 14 mph 1022.7mb 12f
5:54am 8 13 mph 1022.8mb 12f
5:48am 8 16 mph 1022.7mb 12f
5:42am 10 16 mph 1022.7mb 12f
5:36am 8 15 mph 1022.8mb 12f
5:30am 10 16 mph 1022.8mb -
5:24am 10 17 mph 1022.9mb 12f
5:18am 11 18 mph 1022.8mb 12f
5:12am 9 16 mph 1022.9mb 12f
5:06am 11 18 mph 1022.9mb 13f
5:00am 10 16 mph 1022.8mb 13f
4:54am 9 14 mph 1022.9mb 13f
4:48am 11 17 mph 1022.8mb 13f
4:42am 10 21 mph 1022.8mb 13f
4:36am 13 21 mph 1022.7mb 13f
4:30am 14 22 mph 1022.8mb 13f
4:24am 14 22 mph 1022.7mb 13f
4:18am 14 23 mph 1022.7mb -
4:12am 14 21 mph 1022.5mb 13f
4:06am 18 28 mph 1022.4mb 13f
4:00am 20 26 mph 1022.4mb 13f
3:54am 16 22 mph 1022.5mb 13f
3:48am 14 21 mph 1022.6mb 13f
3:42am 13 17 mph 1022.8mb 13f
3:36am 13 17 mph 1022.9mb 13f
3:30am 10 18 mph 1023mb 13f
3:24am 13 18 mph 1023mb 13f
3:18am 13 16 mph 1023.2mb -
3:12am 10 15 mph 1023.2mb 13f
3:06am 8 17 mph 1023.3mb 13f
3:00am 10 15 mph 1023.3mb 13f
2:54am 11 15 mph 1023.5mb 13f
2:48am 9 15 mph 1023.6mb 13f
2:42am 9 17 mph 1023.8mb 13f
2:18am 6 13 mph 1023.9mb 13f
2:12am 3 13 mph 1024mb 13f
2:06am 6 9 mph 1024.2mb 13f
2:00am 2 6 mph 1024.2mb 13f
1:54am 5 9 mph 1024.2mb 13f
1:48am 3 6 mph 1024.4mb 13f
1:42am 2 9 mph 1024.4mb 13f
1:36am 3 7 mph 1024.5mb 12f
1:30am 5 10 mph 1024.5mb 12f
1:18am 3 7 mph 1024.6mb 12f
1:12am 7 11 mph 1024.6mb 12f
1:06am 6 11 mph 1024.6mb 12f
1:00am 7 16 mph 1024.6mb 12f
12:54am 7 14 mph 1024.7mb 12f
12:48am 9 13 mph 1024.7mb 12f
12:36am 3 10 mph 1024.8mb 12f
12:18am 5 7 mph 1025.1mb 12f
12:12am 2 7 mph 1025.2mb 11f
Sat 02/28 11:54pm 10 17 mph 1025.4mb 12f
11:48pm 8 17 mph 1025.4mb 12f
11:42pm 10 15 mph 1025.4mb 12f
11:36pm 6 10 mph 1025.5mb 12f
11:30pm 3 11 mph 1025.5mb 12f
11:24pm 6 8 mph 1025.5mb 12f
11:18pm 7 15 mph 1025.6mb 12f
11:12pm 8 16 mph 1025.7mb 12f
11:06pm 9 16 mph 1025.7mb 13f
11:00pm 10 17 mph 1025.7mb 13f
10:54pm 10 18 mph 1025.7mb 13f
10:48pm 6 9 mph 1025.8mb 13f
10:42pm 3 7 mph 1025.9mb 13f
10:36pm 6 15 mph 1025.8mb 13f
10:30pm 6 15 mph 1025.7mb 12f
10:24pm 9 14 mph 1025.9mb 13f
10:18pm 10 13 mph 1026mb 13f
10:12pm 8 10 mph 1026.1mb 13f
10:06pm 8 13 mph 1026.1mb 13f
9:42pm 8 15 mph 1026.4mb 14f
9:36pm 8 13 mph 1026.6mb 14f
9:30pm 9 14 mph 1026.6mb 14f
9:24pm 9 13 mph 1026.7mb 14f
9:18pm 9 13 mph 1026.8mb 14f
9:12pm 9 13 mph 1026.8mb 14f
9:06pm 8 13 mph 1026.8mb 14f
9:00pm 8 14 mph 1026.8mb 14f
8:54pm 7 15 mph 1026.9mb 15f
8:48pm 8 11 mph 1027mb 15f
8:42pm 6 11 mph 1027mb 14f
8:36pm 11 15 mph 1027mb 15f
8:30pm 9 17 mph 1027mb 15f
8:24pm 13 21 mph 1026.9mb 15f
8:18pm 11 16 mph 1026.9mb 15f
8:12pm 8 11 mph 1026.9mb 15f
8:06pm 10 14 mph 1026.8mb 15f
8:00pm 13 16 mph 1026.9mb 16f
7:54pm 10 14 mph 1026.9mb 16f
7:48pm 13 17 mph 1027mb 17f
7:42pm 14 21 mph 1027.1mb 17f
7:36pm 11 17 mph 1027.2mb 17f
7:24pm 9 16 mph 1027.2mb 17f
7:18pm 14 20 mph 1027.2mb 18f
7:12pm 13 20 mph 1027.3mb 18f
7:06pm 13 15 mph 1027.3mb 18f
7:00pm 9 13 mph 1027.3mb 18f
6:54pm 10 14 mph 1027.3mb 18f
6:48pm 9 13 mph 1027.3mb 18f
6:42pm 10 14 mph 1027.3mb 19f
6:36pm 10 15 mph 1027.2mb 18f
6:30pm 13 16 mph 1027.2mb 19f
6:24pm 14 17 mph 1027.2mb 19f
6:18pm 15 18 mph 1027.2mb 20f
6:12pm 14 17 mph 1027.2mb 20f
6:06pm 11 14 mph 1027.2mb 19f
6:00pm 13 16 mph 1027.1mb 20f
5:54pm 11 13 mph 1027.1mb 19f
4:54pm 14 18 mph - -
4:48pm 13 17 mph 1027.2mb 23f
4:42pm 14 20 mph 1027.3mb 23f
4:36pm 13 18 mph 1027.4mb 23f
4:30pm 11 18 mph 1027.5mb 23f
4:24pm 10 11 mph 1027.6mb 23f
4:18pm 10 15 mph 1027.7mb 22f
4:12pm 9 20 mph 1027.7mb 24f
4:06pm 10 15 mph 1027.8mb 24f
4:00pm 13 14 mph 1027.9mb 24f
3:54pm 10 14 mph 1028mb 23f
3:48pm 11 14 mph 1028.2mb 24f
3:42pm 14 21 mph 1028.3mb 24f
3:36pm 16 20 mph 1028.3mb 23f
3:30pm 11 15 mph 1028.4mb 23f
3:24pm 7 14 mph 1028.4mb 23f
3:18pm 8 17 mph 1028.5mb 24f
3:12pm 9 15 mph - -
3:06pm 8 14 mph 1028.6mb 24f
3:00pm 10 14 mph 1028.7mb 24f
2:54pm 8 15 mph 1028.8mb 25f
2:48pm 10 17 mph 1028.8mb 24f
2:42pm 11 18 mph 1028.9mb 24f
2:36pm 13 22 mph 1028.9mb 23f
2:30pm 10 16 mph 1029mb 24f
2:24pm 11 15 mph 1029mb 24f
2:18pm 8 16 mph 1029.1mb 24f
2:12pm 9 17 mph 1029.2mb 24f
2:06pm 8 15 mph 1029.2mb 24f
1:54pm 7 13 mph 1029.4mb 24f
1:48pm 9 16 mph 1029.4mb 24f
1:42pm 14 18 mph 1029.4mb 23f
1:36pm 8 15 mph 1029.5mb 23f
1:30pm 10 16 mph 1029.5mb 23f
1:24pm 9 17 mph 1029.6mb 23f
1:18pm 8 13 mph 1029.8mb 23f
1:12pm 9 15 mph 1030mb 23f
1:06pm 11 16 mph 1030.1mb 22f
1:00pm 11 15 mph 1030.1mb 22f
12:54pm 8 13 mph 1030.4mb 22f
12:48pm 5 11 mph 1030.4mb 22f
12:42pm 10 13 mph 1030.6mb 21f
12:36pm 7 15 mph 1030.8mb 22f
12:30pm 7 14 mph 1030.9mb 22f
12:24pm 6 10 mph 1031mb 22f
12:18pm 7 15 mph - -
12:00pm 10 13 mph 1031.5mb 20f
11:54am 6 13 mph 1031.6mb 21f
11:48am 8 13 mph 1031.7mb 20f
11:42am 8 14 mph 1031.8mb 19f
11:36am 7 11 mph 1031.8mb 19f
11:30am 10 11 mph 1031.9mb 18f
11:24am 8 10 mph 1032mb 18f
11:18am 5 13 mph 1032.1mb 19f
11:12am 10 15 mph 1032.2mb 18f
11:06am 9 14 mph 1032.3mb 18f
11:00am 9 14 mph 1032.3mb 17f
10:54am 6 13 mph 1032.3mb 18f
10:48am 3 9 mph 1032.3mb 18f
10:42am 7 11 mph 1032.3mb 16f
10:36am 6 11 mph 1032.3mb 17f
10:30am 7 13 mph 1032.4mb 16f
10:24am 8 10 mph 1032.4mb 13f
10:18am 8 10 mph 1032.5mb 13f
10:06am 7 9 mph 1032.6mb 13f
10:00am 6 7 mph 1032.6mb 14f
9:54am 5 6 mph 1032.7mb 11f
9:48am 3 5 mph 1032.7mb 11f
9:42am 5 6 mph 1032.7mb 11f
9:36am 3 5 mph 1032.8mb 13f
9:24am 2 6 mph 1032.8mb 13f
9:18am 5 6 mph 1032.9mb 12f
9:12am 3 8 mph 1032.8mb 13f
9:06am 6 10 mph 1032.8mb 12f
9:00am 6 11 mph 1032.7mb 11f
8:54am 5 14 mph 1032.7mb 11f
8:48am 5 9 mph 1032.7mb 11f
8:42am 8 14 mph 1032.8mb 10f
8:36am 8 14 mph 1032.8mb 10f
8:30am 7 15 mph 1032.8mb 9f
8:12am 9 15 mph 1032.7mb 9f
8:00am 10 16 mph 1032.6mb 8f
7:54am 10 17 mph 1032.5mb 8f
7:48am 10 16 mph 1032.5mb 8f
7:42am 9 14 mph 1032.5mb 8f
7:36am 5 10 mph 1032.4mb 8f
7:30am 2 6 mph 1032.4mb 9f
7:24am 1 8 mph 1032.3mb 8f
7:18am 5 10 mph 1032.3mb 7f
7:06am 5 7 mph 1032.2mb 6f
7:00am 3 5 mph 1032.2mb 5f
6:54am 2 5 mph 1032.1mb 4f
6:48am 2 5 mph 1032.1mb 3f
6:42am 1 3 mph 1032.1mb 4f
6:36am 1 2 mph 1032mb 4f
6:30am 1 3 mph 1032.1mb 4f
6:24am 1 3 mph 1032mb 4f
6:18am 1 2 mph 1032.1mb 3f
6:12am 2 5 mph 1032.1mb -
6:06am 3 6 mph 1032.1mb 1f
6:00am 3 6 mph 1032.1mb 3f
5:54am 3 6 mph 1032mb 5f
5:48am 2 8 mph 1031.9mb 4f
5:42am 1 5 mph 1032mb 4f
5:36am 1 6 mph 1032mb 4f
5:30am 2 5 mph 1031.9mb 4f
5:24am 1 6 mph 1031.8mb 5f
5:12am 3 7 mph 1031.7mb 6f
5:06am 1 2 mph 1031.6mb 4f
5:00am 2 3 mph 1031.6mb 4f
4:54am 2 3 mph 1031.6mb 4f
4:42am 2 5 mph 1031.4mb 4f
4:36am 1 3 mph 1031.4mb 4f
4:30am 2
mph
1031.3mb 4f
4:24am 1 3 mph 1031.3mb 3f
4:18am 2 5 mph 1031.2mb 4f
4:12am 5 6 mph 1031.2mb 4f
4:06am 3 6 mph 1031.1mb 4f
4:00am 3 6 mph 1031mb 4f
3:54am 2 6 mph 1031mb 4f
3:48am 3 5 mph 1031mb 4f
3:42am 3
mph
1031mb 2f
3:36am 2 7 mph 1030.8mb 6f
3:30am 2 6 mph 1030.8mb 6f
3:24am 3 6 mph 1030.7mb 6f
3:18am 3 6 mph 1030.7mb 5f
3:12am 3 6 mph 1030.8mb 4f
3:06am 5 7 mph 1030.8mb 4f
3:00am 5 10 mph 1030.9mb 6f
2:54am 6 9 mph 1030.9mb 8f
2:48am 3 7 mph 1030.8mb 8f
2:42am 3 8 mph 1030.8mb 8f
2:36am 2 6 mph 1030.8mb 8f
2:30am 2 7 mph 1030.7mb 7f
2:24am 3 8 mph 1030.9mb 7f
2:18am 5 10 mph 1030.9mb -
2:12am 5 11 mph 1030.8mb 8f
2:06am 8 16 mph 1030.8mb 8f
2:00am 8 15 mph 1030.7mb 8f
1:54am 10 15 mph 1030.6mb 8f
1:48am 9 17 mph - -
1:42am 10 16 mph 1030.5mb 9f
1:36am 9 13 mph 1030.6mb 8f
1:30am 7 14 mph 1030.6mb 8f
1:24am 6 10 mph 1030.6mb 8f
1:12am 2 5 mph 1030.5mb 8f
1:06am 2 9 mph 1030.6mb 8f
1:00am 7 11 mph 1030.6mb 8f
12:36am 6 7 mph 1030.5mb 10f
12:30am 2 6 mph 1030.6mb 10f
12:06am 2 6 mph 1030.4mb 10f
Fri 02/27 11:42pm 6 9 mph 1030.2mb 11f
11:36pm 3 8 mph 1030.2mb 11f
11:30pm 5 6 mph 1030.1mb 11f
11:24pm 6 8 mph 1030.1mb 11f
11:18pm 6 9 mph 1030.1mb 10f
11:12pm 5 8 mph 1030mb 9f
11:06pm 3 5 mph 1030mb 4f
11:00pm 2 3 mph 1030mb 3f
10:54pm  -  2 mph 1029.9mb -
10:48pm 1 3 mph 1029.8mb -
10:42pm 1 2 mph 1029.8mb -1f
10:36pm 1 2 mph 1029.7mb -2f
10:30pm  -  2 mph 1029.8mb -1f
10:24pm  -  3 mph 1029.7mb -
10:18pm 2 3 mph 1029.8mb -
10:12pm 3 5 mph 1029.8mb -1f
10:06pm 2 3 mph 1029.8mb -
9:48pm  -  2 mph 1029.7mb -1f
9:42pm 1 2 mph 1029.7mb -1f
9:36pm  -  1 mph 1029.6mb -1f
9:30pm  -  1 mph 1029.5mb -
9:24pm  -  2 mph 1029.5mb -
9:18pm  -  1 mph 1029.5mb 2f
9:12pm  -  1 mph 1029.4mb 3f
9:06pm 1 2 mph 1029.3mb 3f
9:00pm 2
mph
- -
8:54pm  -  2 mph 1029.2mb 2f
8:48pm 1 5 mph 1029.2mb 2f
8:42pm 5 6 mph 1029.1mb 3f
8:36pm 5 6 mph 1029.1mb 3f
8:30pm 5 6 mph 1029.1mb 3f
8:24pm 6
mph
1029.1mb 4f
8:18pm 6
mph
1029.1mb 2f
8:12pm 5 6 mph 1029.1mb 2f
8:06pm 5 6 mph 1029.1mb 4f
8:00pm 5 6 mph 1029.1mb 4f
7:42pm 3 5 mph 1029.1mb 5f
7:36pm 3
mph
1029.1mb 5f
7:30pm 3 5 mph 1029.1mb 5f
7:24pm 1 5 mph 1029mb 4f
7:18pm 3 6 mph 1029mb 3f
7:12pm 5 6 mph 1029mb 3f
7:06pm 6
mph
1029mb 3f
7:00pm 5 6 mph 1029mb 4f
6:54pm 3
mph
- -
6:48pm 2 5 mph 1029mb 8f
6:42pm 3 5 mph 1028.9mb 8f
6:36pm 3 6 mph 1028.9mb 8f
6:30pm 3 5 mph 1028.8mb 9f
6:24pm 3 5 mph 1028.8mb 9f
6:18pm 5 6 mph 1028.8mb 9f
6:06pm 3 5 mph 1028.7mb 9f
6:00pm 2 5 mph 1028.6mb 10f
5:54pm 2 5 mph 1028.6mb 10f
5:48pm 3 5 mph 1028.6mb 10f
5:42pm 3 5 mph 1028.5mb -
5:36pm 3 5 mph 1028.5mb 10f
5:30pm 3 5 mph 1028.5mb 9f
5:24pm 3 5 mph 1028.5mb 9f
5:18pm 3 5 mph 1028.5mb 9f
5:12pm 2 5 mph 1028.4mb 9f
5:06pm 2 5 mph 1028.4mb 9f
5:00pm 3 5 mph 1028.4mb 9f
4:54pm 3 5 mph 1028.3mb 10f
4:48pm 3 5 mph 1028.3mb 10f
4:42pm 3 5 mph 1028.3mb 10f
4:36pm 2 3 mph 1028.3mb 10f
4:30pm 2 3 mph 1028.4mb 11f
4:24pm 2 3 mph 1028.5mb 11f
4:18pm 2 3 mph 1028.4mb 11f
4:12pm 2 5 mph 1028.4mb 11f
4:06pm 2 3 mph 1028.4mb 11f
4:00pm 2 5 mph 1028.4mb 11f
3:54pm 3 5 mph 1028.4mb 11f
3:48pm 2 5 mph - -
3:42pm 2 5 mph 1028.4mb 12f
3:24pm 3 5 mph 1028.3mb 12f
3:18pm 3 6 mph 1028.2mb 12f
3:12pm 2 7 mph 1028.3mb 13f
3:06pm 5 6 mph 1028.3mb 12f
3:00pm 2 6 mph 1028.3mb 13f
2:54pm 3 6 mph 1028.2mb 13f
2:48pm 3 5 mph 1028.3mb 13f
2:42pm 2 5 mph 1028.3mb 14f
2:36pm 2 6 mph 1028.2mb 15f
2:30pm 3 6 mph 1028.2mb 15f
2:24pm 2 6 mph 1028.1mb 14f
2:18pm 2 6 mph 1028.1mb 15f
2:06pm 5 7 mph 1028mb 14f
2:00pm 3 5 mph 1028mb 14f
1:54pm 2 6 mph 1028mb 14f
1:48pm 2 6 mph 1028mb 14f
1:42pm 3 5 mph 1028mb 13f
1:36pm 3 6 mph 1027.9mb 13f
1:30pm 2 6 mph 1028mb 13f
1:24pm 5 6 mph 1028mb 12f
1:18pm 6 7 mph 1028.1mb 11f
1:12pm 6
mph
1028.1mb 11f
1:06pm 6 8 mph 1028.1mb 11f
1:00pm 6 7 mph 1028.2mb 11f
12:54pm 6 7 mph 1028.3mb 11f
12:48pm 6 7 mph 1028.3mb 11f
12:42pm 6 8 mph 1028.5mb 11f
12:36pm 7 8 mph 1028.5mb 10f
12:30pm 7 8 mph 1028.6mb 10f
12:24pm 7 8 mph 1028.7mb 10f
12:18pm 7 8 mph 1028.7mb -
12:12pm 7 8 mph 1028.8mb 9f
12:06pm 7 8 mph 1028.8mb 9f
12:00pm 7 8 mph 1028.8mb 9f
11:54am 7 8 mph 1028.9mb 9f
11:48am 7
mph
1029mb 9f
11:42am 6 7 mph 1029mb 8f
11:36am 6 8 mph 1029.1mb 8f
11:30am 7
mph
1029.1mb 8f
11:24am 7 8 mph 1029.1mb 8f
11:18am 7 8 mph 1029.2mb -
11:12am 6 7 mph 1029.2mb 8f
11:06am 6 7 mph 1029.1mb 8f
11:00am 6 7 mph 1029.1mb 8f
10:54am 5 6 mph 1029.1mb 8f
10:48am 5 6 mph 1029.2mb 8f
10:42am 6 7 mph 1029.1mb 7f
10:36am 6
mph
1029.2mb 6f
10:30am 6 7 mph 1029.2mb 6f
10:24am 7
mph
1029.2mb 6f
10:18am 6 7 mph - -
10:12am 6 8 mph 1029.2mb 6f
10:06am 7 8 mph 1029.1mb 5f
10:00am 3 6 mph 1029.1mb 6f
9:54am 6 7 mph 1029.1mb 6f
9:48am 3 7 mph 1029.1mb 9f
9:42am 2 8 mph 1029.1mb 10f
9:36am 7 10 mph 1029.1mb 8f
9:30am 3 7 mph 1029.1mb 8f
9:24am 6 14 mph 1029.2mb 7f
9:18am 8 13 mph 1029.1mb -
9:12am 7 10 mph 1029mb 7f
9:06am 3 7 mph 1029mb 6f
9:00am 3 5 mph 1029mb 6f
8:54am 3 6 mph 1028.9mb 7f
8:42am 5 7 mph 1028.9mb 5f
8:18am 5 9 mph 1028.8mb 3f
8:12am 5 9 mph 1028.7mb 3f
8:06am 6 13 mph 1028.7mb 2f
8:00am 5 9 mph 1028.6mb 2f
7:54am 6 11 mph 1028.6mb 1f
7:48am 5 9 mph 1028.5mb 1f
7:42am 3 10 mph 1028.5mb 1f
7:36am 6 13 mph 1028.5mb -
7:30am 6 10 mph 1028.5mb -1f
7:24am 6 15 mph 1028.4mb -1f
7:18am 7 14 mph 1028.3mb -2f
7:12am 7 13 mph 1028.2mb -2f
7:06am 7 13 mph 1028.1mb -2f
7:00am 7 11 mph 1028.2mb -2f
6:54am 7 15 mph 1028.2mb -2f
6:48am 7 13 mph 1028.2mb -3f
6:42am 6 11 mph 1028.1mb -2f
6:36am 7 11 mph 1028mb -2f
6:30am 6 9 mph 1028mb -2f
6:24am 6 11 mph 1028mb -2f
6:18am 7 13 mph 1028mb -2f
6:12am 7 11 mph 1028mb -3f
6:06am 6 10 mph 1028mb -2f
6:00am 7 11 mph 1027.9mb -2f
5:54am 6 10 mph 1028mb -3f
5:48am 6 14 mph 1028mb -2f
5:42am 6 11 mph 1028mb -2f
5:36am 6 11 mph 1027.9mb -2f
5:30am 7 11 mph 1027.8mb -
5:24am 6 11 mph 1027.7mb -2f
5:18am 7 13 mph 1027.7mb -2f
5:12am 6 9 mph 1027.6mb -2f
5:06am 6 8 mph 1027.6mb -1f
5:00am 7 13 mph 1027.5mb -
4:54am 7 10 mph 1027.4mb -1f
4:48am 6 10 mph 1027.3mb -1f
4:42am 6 11 mph 1027.3mb -1f
4:36am 6 10 mph 1027.2mb -1f
4:30am 6 9 mph 1027.1mb -1f
4:24am 7 9 mph 1027.1mb -1f
4:18am 3 9 mph 1027mb -1f
4:12am 7 11 mph 1027mb -1f
4:06am 6 10 mph 1026.9mb -1f
4:00am 6 9 mph 1026.9mb -1f
3:54am 5 7 mph 1026.9mb -
3:48am 3 8 mph 1026.8mb 1f
3:42am 3 9 mph 1026.7mb 1f
3:36am 5 8 mph 1026.7mb 1f
3:30am 3 9 mph 1026.7mb 1f
3:24am 3 7 mph 1026.7mb 1f
3:18am 3 7 mph 1026.7mb 1f
3:12am 2 7 mph 1026.7mb 1f
3:06am 5 7 mph 1026.7mb 1f
3:00am 5 7 mph 1026.7mb 1f
2:54am 3 6 mph 1026.7mb 1f
2:42am 2 6 mph 1026.7mb 1f
2:36am 2 7 mph 1026.7mb 1f
2:30am 3 5 mph 1026.7mb 1f
2:24am 2 6 mph 1026.7mb 1f
2:18am 2 6 mph 1026.7mb 1f
2:12am 3 6 mph 1026.7mb 1f
2:06am 2 7 mph 1026.7mb 1f
2:00am 3 6 mph 1026.6mb -
1:54am 3 6 mph 1026.7mb 1f
1:48am 3 6 mph 1026.7mb 1f
1:42am 2 6 mph 1026.7mb 1f
1:36am 3 6 mph 1026.7mb 1f
1:30am 3 6 mph 1026.6mb 1f
1:24am 2 7 mph 1026.6mb 1f
1:18am 3 6 mph 1026.6mb 1f
1:12am 3 6 mph 1026.5mb 1f
1:06am 2 5 mph 1026.5mb -
1:00am 2 5 mph 1026.5mb -
12:54am 2 5 mph 1026.5mb -
12:48am 3 5 mph 1026.4mb -
12:42am 3 5 mph 1026.4mb -
12:36am 2 5 mph 1026.4mb -
12:18am 2 5 mph 1026.2mb 1f
12:12am 2 6 mph 1026.2mb 1f
Thu 02/26 11:54pm 3 6 mph 1026.2mb 1f
11:48pm 3 6 mph 1026.2mb 1f
11:42pm 2 6 mph 1026.2mb 1f
11:36pm 3 7 mph 1026.3mb 2f
11:30pm 3 7 mph - -
11:24pm 5 9 mph 1026.2mb 1f
11:18pm 3 7 mph 1026.3mb 1f
11:12pm 3 8 mph 1026.3mb 1f
11:06pm 2 6 mph 1026.3mb 1f
11:00pm 2 5 mph 1026.3mb -
10:54pm  -  3 mph 1026.3mb -1f
10:48pm 1 2 mph 1026.3mb -1f
10:42pm 1 2 mph 1026.3mb -1f
10:36pm 2 5 mph 1026.3mb -1f
10:30pm 1 2 mph 1026.3mb -
10:24pm 3 6 mph 1026.4mb 1f
10:18pm 3 7 mph 1026.4mb 1f
10:12pm 2 7 mph 1026.4mb 1f
10:06pm 2 3 mph 1026.5mb -
9:54pm  -  3 mph 1026.5mb -
9:48pm 1 5 mph 1026.6mb -
9:42pm 1 6 mph 1026.6mb -
9:36pm 1 5 mph 1026.5mb -
9:30pm 2 6 mph 1026.6mb -
9:24pm 3 7 mph 1026.6mb -
9:12pm  -  3 mph 1026.7mb -3f
9:06pm 1 2 mph 1026.7mb -3f
9:00pm  -  2 mph 1026.7mb -3f
8:54pm  -  5 mph 1026.7mb -1f
8:48pm 2 6 mph 1026.6mb -1f
8:42pm 5 6 mph 1026.6mb -1f
8:36pm 3 5 mph 1026.7mb -1f
8:30pm 2 3 mph 1026.7mb -1f
8:24pm 3 5 mph 1026.7mb -
8:18pm 3 6 mph 1026.7mb -
8:12pm 2 6 mph 1026.6mb 1f
8:06pm 2 6 mph 1026.6mb 2f
8:00pm 3 7 mph 1026.7mb 2f
7:54pm 3 7 mph 1026.7mb 2f
7:48pm 5 9 mph 1026.7mb 2f
7:42pm 5 8 mph 1026.7mb 2f
7:36pm 5 8 mph 1026.6mb 2f
7:30pm 2 6 mph 1026.6mb 2f
7:24pm 3 7 mph 1026.6mb 2f
7:18pm 3 5 mph 1026.5mb -
7:12pm 1 3 mph 1026.4mb 2f
7:06pm 1 3 mph 1026.4mb 2f
7:00pm 2 3 mph 1026.3mb 3f
6:54pm 2 3 mph 1026.3mb 3f
6:48pm 2 3 mph 1026.3mb -
6:42pm 2 3 mph 1026.2mb 3f
6:36pm 2 3 mph 1026.1mb 3f
6:30pm 2 5 mph 1026.1mb 3f
6:24pm 2 3 mph 1025.9mb 2f
6:18pm 2 5 mph 1025.8mb 2f
6:12pm 3 6 mph 1025.8mb 2f
6:06pm 3 6 mph 1025.7mb 3f
6:00pm 5 6 mph 1025.7mb 3f
5:54pm 3 7 mph 1025.6mb 3f
5:48pm 5 7 mph 1025.5mb 3f
5:42pm 5 7 mph 1025.4mb 3f
5:36pm 5 8 mph 1025.4mb 3f
5:30pm 3 6 mph 1025.3mb 3f
5:24pm 3 6 mph 1025.3mb 4f
5:18pm 2 6 mph 1025.3mb 4f
5:12pm 5 8 mph 1025.3mb 4f
5:06pm 5 9 mph 1025.3mb 4f
5:00pm 6 11 mph 1025.3mb 4f
4:54pm 7 10 mph 1025.3mb 4f
4:48pm 6 9 mph 1025.3mb 4f
4:42pm 7 13 mph 1025.3mb 4f
4:36pm 7 10 mph 1025.2mb 4f
4:30pm 5 15 mph 1025.3mb 5f
4:24pm 9 14 mph 1025.2mb 4f
4:18pm 9 15 mph 1025.2mb -
4:12pm 6 14 mph 1025.2mb 4f
4:06pm 10 15 mph 1025.2mb 4f
4:00pm 9 16 mph 1025.2mb 4f
3:54pm 8 16 mph 1025.3mb 5f
3:48pm 10 15 mph 1025.3mb 4f
3:42pm 9 15 mph 1025.3mb 5f
3:36pm 7 15 mph 1025.3mb 5f
3:30pm 9 15 mph 1025.3mb 4f
3:24pm 10 16 mph 1025.3mb 4f
3:12pm 13 18 mph 1025.3mb 4f
3:06pm 10 18 mph 1025.3mb 4f
3:00pm 11 18 mph 1025.4mb 4f
2:54pm 13 17 mph 1025.4mb 4f
2:48pm 11 17 mph 1025.4mb 4f
2:42pm 13 18 mph 1025.4mb 4f
2:36pm 13 18 mph 1025.4mb 4f
2:30pm 8 17 mph 1025.4mb 4f
2:24pm 11 18 mph 1025.4mb 4f
2:18pm 11 18 mph 1025.4mb -
2:12pm 11 17 mph 1025.5mb 4f
2:06pm 14 18 mph 1025.5mb 4f
2:00pm 11 20 mph 1025.4mb 4f
1:54pm 9 16 mph 1025.4mb 4f
1:48pm 10 16 mph 1025.5mb 4f
1:42pm 11 17 mph 1025.5mb 4f
1:36pm 11 16 mph 1025.5mb 4f
1:30pm 11 17 mph 1025.5mb 4f
1:24pm 9 16 mph 1025.5mb 4f
1:12pm 14 18 mph 1025.6mb 3f
1:06pm 10 15 mph 1025.6mb 4f
1:00pm 13 17 mph 1025.7mb 4f
12:54pm 10 18 mph 1025.7mb 4f
12:48pm 11 16 mph 1025.7mb 4f
12:42pm 13 16 mph 1025.7mb 4f
12:36pm 10 18 mph 1025.8mb 4f
12:30pm 10 17 mph 1025.8mb 4f
12:24pm 10 18 mph 1025.9mb 4f
12:12pm 10 20 mph 1025.9mb 4f
12:06pm 13 18 mph 1025.9mb 4f
12:00pm 10 17 mph 1026mb 4f
11:54am 5 15 mph 1026.1mb 6f
11:48am 9 20 mph 1026.2mb 5f
11:42am 11 17 mph 1026.1mb 4f
11:36am 10 17 mph 1026.1mb 4f
11:30am 9 16 mph 1026.2mb 5f
11:24am 9 16 mph 1026.2mb 5f
11:18am 9 16 mph - -
11:12am 9 18 mph 1026.1mb 5f
11:06am 6 13 mph 1026.1mb 6f
11:00am 10 17 mph 1026mb 4f
10:54am 9 15 mph 1026mb 4f
10:48am 7 16 mph 1026mb 5f
10:42am 8 17 mph 1026mb 4f
10:36am 6 9 mph 1026.1mb 5f
10:30am 8 13 mph 1026.1mb 4f
10:24am 8 15 mph 1026.1mb 4f
10:12am 6 10 mph 1026.1mb 4f
10:06am 8 13 mph 1026mb 3f
10:00am 7 11 mph 1026mb 3f
9:54am 8 11 mph 1026mb 3f
9:48am 6 9 mph 1026mb 3f
9:42am 6 9 mph 1025.9mb 3f
9:36am 6 9 mph 1025.9mb 3f
9:30am 6 9 mph 1025.9mb 2f
9:24am 6 8 mph 1025.8mb 2f
9:18am 2 10 mph 1025.8mb 3f
9:12am 6 8 mph 1025.8mb 3f
9:06am 2 6 mph 1025.8mb 2f
9:00am 2 6 mph 1025.7mb 2f
8:54am 5 7 mph 1025.8mb 1f
8:48am 6 7 mph 1025.7mb 1f
8:42am 5 6 mph 1025.7mb 2f
8:36am 3 7 mph 1025.6mb 2f
8:30am 3 6 mph 1025.6mb 2f
8:24am 3 5 mph 1025.5mb 1f
8:18am 3 7 mph - -
8:12am 1 6 mph 1025.4mb 2f
8:06am 3 8 mph 1025.3mb 2f
8:00am 7 9 mph 1025.2mb 1f
7:54am 7 8 mph 1025.2mb 1f
7:48am 3 7 mph 1025.1mb 1f
7:42am 5 7 mph 1025mb 1f
7:36am 1 5 mph 1025mb 1f
7:30am 2 5 mph 1024.8mb 1f
7:24am 2 3 mph 1024.8mb 1f
7:12am  -  2 mph 1024.6mb -
7:06am 2 3 mph 1024.5mb -
7:00am 1 2 mph 1024.4mb -1f
6:54am  -  2 mph 1024.3mb -1f
6:48am 1 2 mph 1024.3mb -1f
6:42am 1 6 mph 1024.2mb -1f
6:36am 1 3 mph 1024.1mb -1f
6:30am 1 2 mph 1024mb -1f
6:24am 1 5 mph 1024mb -1f
6:18am 1 3 mph 1023.9mb -1f
6:12am 2 6 mph 1023.8mb -1f
6:06am 2 5 mph 1023.8mb -1f
6:00am 2 3 mph 1023.7mb -1f
5:54am 2 6 mph 1023.7mb -1f
5:48am 3 8 mph 1023.7mb -
5:42am 2 8 mph 1023.7mb -1f
5:36am 3 7 mph 1023.7mb -
5:30am 1 3 mph 1023.6mb -1f
5:24am 1 3 mph 1023.6mb -1f
5:18am 2 6 mph - -
5:12am 2 7 mph 1023.5mb -1f
5:06am 2 5 mph 1023.4mb -1f
5:00am 3 7 mph 1023.3mb -1f
4:54am 3 6 mph 1023.3mb -1f
4:48am 3 6 mph 1023.3mb -1f
4:42am 3 8 mph 1023.3mb -1f
4:36am 5 8 mph 1023.3mb -1f
4:30am 5 7 mph 1023.2mb -1f
4:24am 3 8 mph 1023.2mb -1f
4:18am 5 7 mph - -
4:12am 3 6 mph 1023.2mb -2f
4:06am 3 7 mph 1023.1mb -1f
4:00am 2 6 mph 1023mb -2f
3:54am 2 6 mph 1023mb -2f
3:48am 3 6 mph 1023mb -2f